createdAt,value
2023-03-06T07:30:01.870Z,933
2023-03-06T09:41:55.576Z,932
2023-03-06T09:43:55.540Z,961
2023-03-06T09:44:55.587Z,957
2023-03-06T09:45:55.568Z,966
2023-03-06T09:46:55.550Z,957
2023-03-06T09:47:55.552Z,947
2023-03-06T09:48:55.542Z,963
2023-03-06T09:49:55.574Z,953
2023-03-06T09:50:55.557Z,959
2023-03-06T09:51:55.557Z,944
2023-03-06T09:52:55.558Z,960
2023-03-06T09:54:55.601Z,957
2023-03-06T09:55:55.544Z,940
2023-03-06T09:56:55.547Z,955
2023-03-06T09:57:55.544Z,944
2023-03-06T09:58:55.554Z,954
2023-03-06T09:59:55.784Z,957
2023-03-06T10:00:55.551Z,959
2023-03-06T10:02:55.670Z,945
2023-03-06T10:04:55.624Z,948
2023-03-06T10:05:55.543Z,950
2023-03-06T10:06:55.544Z,943
2023-03-06T10:07:55.553Z,943
2023-03-06T10:08:55.556Z,948
2023-03-06T10:09:55.548Z,941
2023-03-06T10:10:55.546Z,948
2023-03-06T10:11:55.536Z,944
2023-03-06T10:12:55.547Z,935
2023-03-06T10:13:55.541Z,945
2023-03-06T10:14:55.843Z,934
2023-03-06T10:15:55.581Z,948
2023-03-06T10:17:55.539Z,951
2023-03-06T10:18:55.545Z,946
2023-03-06T10:19:55.543Z,950
2023-03-06T10:20:55.549Z,947
2023-03-06T10:21:55.546Z,965
2023-03-06T10:23:01.213Z,942
2023-03-06T10:23:55.554Z,945
2023-03-06T10:25:55.553Z,938
2023-03-06T10:26:55.819Z,947
2023-03-06T10:27:55.571Z,938
2023-03-06T10:28:55.541Z,932
2023-03-06T10:30:55.620Z,950
2023-03-06T10:31:55.565Z,932
2023-03-06T10:32:55.596Z,931
2023-03-06T10:33:55.546Z,949
2023-03-06T10:34:55.545Z,945
2023-03-06T10:35:55.584Z,936
2023-03-06T10:36:55.553Z,958
2023-03-06T10:38:55.547Z,922
2023-03-06T10:39:55.551Z,950
2023-03-06T10:40:55.546Z,1000
2023-03-06T10:41:55.545Z,945
2023-03-06T10:43:10.557Z,953
2023-03-06T10:43:55.545Z,954
2023-03-06T10:44:55.588Z,943
2023-03-06T10:45:55.703Z,1000
2023-03-06T10:46:55.603Z,929
2023-03-06T10:47:55.642Z,974
2023-03-06T10:48:55.544Z,959
2023-03-06T10:49:55.547Z,987
2023-03-06T10:51:55.553Z,967
2023-03-06T10:52:55.554Z,957
2023-03-06T10:53:55.593Z,959
2023-03-06T10:54:55.548Z,986
2023-03-06T10:55:55.557Z,961
2023-03-06T10:57:55.551Z,964
2023-03-06T10:58:55.605Z,962
2023-03-06T10:59:55.549Z,963
2023-03-06T11:00:55.557Z,989
2023-03-06T11:01:55.677Z,986
2023-03-06T11:02:55.546Z,979
2023-03-06T11:03:55.614Z,962
2023-03-06T11:04:55.639Z,973
2023-03-06T11:05:55.558Z,973
2023-03-06T11:06:55.545Z,994
2023-03-06T11:07:55.550Z,979
2023-03-06T11:08:55.549Z,983
2023-03-06T11:09:55.562Z,988
2023-03-06T11:10:55.558Z,1000
2023-03-06T11:11:55.546Z,971
2023-03-06T11:12:55.548Z,989
2023-03-06T11:13:55.546Z,974
2023-03-06T11:14:55.555Z,979
2023-03-06T11:15:55.576Z,1000
2023-03-06T11:16:55.553Z,964
2023-03-06T11:18:55.544Z,997
2023-03-06T11:19:55.568Z,985
2023-03-06T11:20:55.554Z,986
2023-03-06T11:21:55.566Z,981
2023-03-06T11:22:55.544Z,977
2023-03-06T11:23:55.617Z,968
2023-03-06T11:24:55.549Z,977
2023-03-06T11:25:55.553Z,1000
2023-03-06T11:26:55.560Z,979
2023-03-06T11:27:55.549Z,982
2023-03-06T11:28:55.577Z,976
2023-03-06T11:29:55.542Z,979
2023-03-06T11:31:55.540Z,990
2023-03-06T11:32:55.574Z,991
2023-03-06T11:33:55.556Z,1000
2023-03-06T11:34:55.562Z,1000
2023-03-06T11:35:55.604Z,975
2023-03-06T11:36:55.539Z,1000
2023-03-06T11:37:55.546Z,1000
2023-03-06T11:39:55.543Z,1000
2023-03-06T11:40:55.564Z,1000
2023-03-06T11:41:55.547Z,1000
2023-03-06T11:42:55.549Z,1000
2023-03-06T11:43:55.544Z,1000
2023-03-06T11:44:55.559Z,1000
2023-03-06T11:45:55.566Z,1000
2023-03-06T11:46:55.644Z,1000
2023-03-06T11:47:55.546Z,1000
2023-03-06T11:48:55.543Z,1000
2023-03-06T11:49:55.542Z,1000
2023-03-06T11:50:55.569Z,1000
2023-03-06T11:52:55.554Z,1000
2023-03-06T11:53:55.565Z,1000
2023-03-06T11:54:55.543Z,1000
2023-03-06T11:55:55.593Z,1000
2023-03-06T11:56:55.549Z,1000
2023-03-06T11:58:55.540Z,1000
2023-03-06T11:59:55.549Z,1000
2023-03-06T12:00:55.578Z,1000
2023-03-06T12:01:55.593Z,1000
2023-03-06T12:02:55.542Z,1000
2023-03-06T12:03:57.862Z,1000
2023-03-06T12:04:55.601Z,1000
2023-03-06T12:05:55.570Z,1000
2023-03-06T12:06:55.559Z,1000
2023-03-06T12:07:55.547Z,970
2023-03-06T12:08:55.556Z,1000
2023-03-06T12:09:55.575Z,1000
2023-03-06T12:11:55.546Z,1000
2023-03-06T12:12:55.541Z,980
2023-03-06T12:13:55.553Z,1000
2023-03-06T12:14:55.556Z,997
2023-03-06T12:15:55.943Z,1000
2023-03-06T12:16:55.550Z,1000
2023-03-06T12:17:55.545Z,1000
2023-03-06T12:19:55.559Z,1000
2023-03-06T12:20:55.562Z,995
2023-03-06T12:21:55.629Z,1000
2023-03-06T12:23:02.389Z,1000
2023-03-06T12:24:55.546Z,1000
2023-03-06T12:25:55.581Z,1000
2023-03-06T12:26:55.559Z,969
2023-03-06T12:27:55.547Z,988
2023-03-06T15:51:01.925Z,995
